sensor_id;sensor_type;location;lat;lon;timestamp;temperature;humidity
52919;DHT22;38793;52.690;6.812;2023-01-05T00:01:42;10.40;99.90
52919;DHT22;38793;52.690;6.812;2023-01-05T00:04:07;10.40;99.90
52919;DHT22;38793;52.690;6.812;2023-01-05T00:06:33;10.30;99.90
52919;DHT22;38793;52.690;6.812;2023-01-05T00:08:59;10.30;99.90
52919;DHT22;38793;52.690;6.812;2023-01-05T00:11:26;10.30;99.90
52919;DHT22;38793;52.690;6.812;2023-01-05T00:14:30;10.30;99.90
52919;DHT22;38793;52.690;6.812;2023-01-05T00:17:18;10.30;99.90
52919;DHT22;38793;52.690;6.812;2023-01-05T00:20:04;10.30;99.90
52919;DHT22;38793;52.690;6.812;2023-01-05T00:22:53;10.30;99.90
52919;DHT22;38793;52.690;6.812;2023-01-05T00:25:27;10.30;99.90
52919;DHT22;38793;52.690;6.812;2023-01-05T00:27:53;10.30;99.90
52919;DHT22;38793;52.690;6.812;2023-01-05T00:30:23;10.30;99.90
52919;DHT22;38793;52.690;6.812;2023-01-05T00:32:50;10.30;99.90
52919;DHT22;38793;52.690;6.812;2023-01-05T00:35:16;10.30;99.90
52919;DHT22;38793;52.690;6.812;2023-01-05T00:37:43;10.30;99.90
52919;DHT22;38793;52.690;6.812;2023-01-05T00:40:11;10.30;99.90
52919;DHT22;38793;52.690;6.812;2023-01-05T00:42:37;10.30;99.90
52919;DHT22;38793;52.690;6.812;2023-01-05T00:45:08;10.40;99.90
52919;DHT22;38793;52.690;6.812;2023-01-05T00:47:34;10.40;99.90
52919;DHT22;38793;52.690;6.812;2023-01-05T00:49:59;10.40;99.90
52919;DHT22;38793;52.690;6.812;2023-01-05T00:52:25;10.40;99.90
52919;DHT22;38793;52.690;6.812;2023-01-05T00:54:50;10.40;99.90
52919;DHT22;38793;52.690;6.812;2023-01-05T00:57:16;10.30;99.90
52919;DHT22;38793;52.690;6.812;2023-01-05T00:59:41;10.30;99.90
52919;DHT22;38793;52.690;6.812;2023-01-05T01:02:08;10.40;99.90
52919;DHT22;38793;52.690;6.812;2023-01-05T01:04:34;10.40;99.90
52919;DHT22;38793;52.690;6.812;2023-01-05T01:07:00;10.40;99.90
52919;DHT22;38793;52.690;6.812;2023-01-05T01:09:26;10.40;99.90
52919;DHT22;38793;52.690;6.812;2023-01-05T01:11:52;10.40;99.90
52919;DHT22;38793;52.690;6.812;2023-01-05T01:14:18;10.40;99.90
52919;DHT22;38793;52.690;6.812;2023-01-05T01:16:43;10.40;99.90
52919;DHT22;38793;52.690;6.812;2023-01-05T01:19:20;10.40;99.90
52919;DHT22;38793;52.690;6.812;2023-01-05T01:21:46;10.40;99.90
52919;DHT22;38793;52.690;6.812;2023-01-05T01:24:17;10.40;99.90
52919;DHT22;38793;52.690;6.812;2023-01-05T01:26:43;10.40;99.90
52919;DHT22;38793;52.690;6.812;2023-01-05T01:29:09;10.40;99.90
52919;DHT22;38793;52.690;6.812;2023-01-05T01:31:34;10.40;99.90
52919;DHT22;38793;52.690;6.812;2023-01-05T01:34:02;10.40;99.90
52919;DHT22;38793;52.690;6.812;2023-01-05T01:36:27;10.40;99.90
52919;DHT22;38793;52.690;6.812;2023-01-05T01:38:53;10.40;99.90
52919;DHT22;38793;52.690;6.812;2023-01-05T01:41:18;10.40;99.90
52919;DHT22;38793;52.690;6.812;2023-01-05T01:43:52;10.40;99.90
52919;DHT22;38793;52.690;6.812;2023-01-05T01:46:20;10.40;99.90
52919;DHT22;38793;52.690;6.812;2023-01-05T01:48:50;10.40;99.90
52919;DHT22;38793;52.690;6.812;2023-01-05T01:51:26;10.40;99.90
52919;DHT22;38793;52.690;6.812;2023-01-05T01:53:56;10.30;99.90
52919;DHT22;38793;52.690;6.812;2023-01-05T01:56:23;10.30;99.90
52919;DHT22;38793;52.690;6.812;2023-01-05T01:58:51;10.30;99.90
52919;DHT22;38793;52.690;6.812;2023-01-05T02:01:16;10.30;99.90
52919;DHT22;38793;52.690;6.812;2023-01-05T02:03:43;10.30;99.90
52919;DHT22;38793;52.690;6.812;2023-01-05T02:06:09;10.30;99.90
52919;DHT22;38793;52.690;6.812;2023-01-05T02:08:35;10.30;99.90
52919;DHT22;38793;52.690;6.812;2023-01-05T02:14:00;10.20;99.90
52919;DHT22;38793;52.690;6.812;2023-01-05T02:25:10;10.20;99.90
52919;DHT22;38793;52.690;6.812;2023-01-05T02:28:05;10.10;99.90
52919;DHT22;38793;52.690;6.812;2023-01-05T02:30:48;10.10;99.90
52919;DHT22;38793;52.690;6.812;2023-01-05T02:36:32;10.10;99.90
52919;DHT22;38793;52.690;6.812;2023-01-05T02:42:18;10.10;99.90
52919;DHT22;38793;52.690;6.812;2023-01-05T02:44:27;10.10;99.90
52919;DHT22;38793;52.690;6.812;2023-01-05T02:47:03;10.10;99.90
52919;DHT22;38793;52.690;6.812;2023-01-05T02:49:31;10.10;99.90
52919;DHT22;38793;52.690;6.812;2023-01-05T02:51:59;10.10;99.90
52919;DHT22;38793;52.690;6.812;2023-01-05T02:54:40;10.10;99.90
52919;DHT22;38793;52.690;6.812;2023-01-05T02:57:12;10.10;99.90
52919;DHT22;38793;52.690;6.812;2023-01-05T02:59:48;10.10;99.90
52919;DHT22;38793;52.690;6.812;2023-01-05T03:02:23;10.10;99.90
52919;DHT22;38793;52.690;6.812;2023-01-05T03:05:13;10.10;99.90
52919;DHT22;38793;52.690;6.812;2023-01-05T03:07:42;10.10;99.90
52919;DHT22;38793;52.690;6.812;2023-01-05T03:10:09;10.00;99.90
52919;DHT22;38793;52.690;6.812;2023-01-05T03:12:56;10.10;99.90
52919;DHT22;38793;52.690;6.812;2023-01-05T03:15:43;10.10;99.90
52919;DHT22;38793;52.690;6.812;2023-01-05T03:18:12;10.10;99.90
52919;DHT22;38793;52.690;6.812;2023-01-05T03:20:41;10.10;99.90
52919;DHT22;38793;52.690;6.812;2023-01-05T03:23:10;10.10;99.90
52919;DHT22;38793;52.690;6.812;2023-01-05T03:25:55;10.10;99.90
52919;DHT22;38793;52.690;6.812;2023-01-05T03:28:42;10.10;99.90
52919;DHT22;38793;52.690;6.812;2023-01-05T03:31:50;10.00;99.90
52919;DHT22;38793;52.690;6.812;2023-01-05T03:34:43;10.00;99.90
52919;DHT22;38793;52.690;6.812;2023-01-05T03:37:35;10.00;99.90
52919;DHT22;38793;52.690;6.812;2023-01-05T03:40:05;10.00;99.90
52919;DHT22;38793;52.690;6.812;2023-01-05T03:42:33;10.00;99.90
52919;DHT22;38793;52.690;6.812;2023-01-05T03:44:58;10.00;99.90
52919;DHT22;38793;52.690;6.812;2023-01-05T03:47:24;10.00;99.90
52919;DHT22;38793;52.690;6.812;2023-01-05T03:49:50;9.90;99.90
52919;DHT22;38793;52.690;6.812;2023-01-05T03:52:16;9.90;99.90
52919;DHT22;38793;52.690;6.812;2023-01-05T03:54:41;9.90;99.90
52919;DHT22;38793;52.690;6.812;2023-01-05T03:57:07;9.90;99.90
52919;DHT22;38793;52.690;6.812;2023-01-05T03:59:33;9.90;99.90
52919;DHT22;38793;52.690;6.812;2023-01-05T04:01:58;10.00;99.90
52919;DHT22;38793;52.690;6.812;2023-01-05T04:04:24;9.90;99.90
52919;DHT22;38793;52.690;6.812;2023-01-05T04:06:49;10.00;99.90
52919;DHT22;38793;52.690;6.812;2023-01-05T04:09:15;10.00;99.90
52919;DHT22;38793;52.690;6.812;2023-01-05T04:11:40;9.90;99.90
52919;DHT22;38793;52.690;6.812;2023-01-05T04:14:06;9.90;99.90
52919;DHT22;38793;52.690;6.812;2023-01-05T04:16:31;9.90;99.90
52919;DHT22;38793;52.690;6.812;2023-01-05T04:18:57;9.90;99.90
52919;DHT22;38793;52.690;6.812;2023-01-05T04:21:23;9.90;99.90
52919;DHT22;38793;52.690;6.812;2023-01-05T04:23:48;9.90;99.90
52919;DHT22;38793;52.690;6.812;2023-01-05T04:26:14;9.90;99.90
52919;DHT22;38793;52.690;6.812;2023-01-05T04:28:40;9.90;99.90
52919;DHT22;38793;52.690;6.812;2023-01-05T04:31:05;9.90;99.90
52919;DHT22;38793;52.690;6.812;2023-01-05T04:33:31;9.90;99.90
52919;DHT22;38793;52.690;6.812;2023-01-05T04:35:56;9.90;99.90
52919;DHT22;38793;52.690;6.812;2023-01-05T04:38:22;9.90;99.90
52919;DHT22;38793;52.690;6.812;2023-01-05T04:40:51;9.90;99.90
52919;DHT22;38793;52.690;6.812;2023-01-05T04:43:17;9.90;99.90
52919;DHT22;38793;52.690;6.812;2023-01-05T04:45:46;9.80;99.90
52919;DHT22;38793;52.690;6.812;2023-01-05T04:48:12;9.90;99.90
52919;DHT22;38793;52.690;6.812;2023-01-05T04:50:38;9.90;99.90
52919;DHT22;38793;52.690;6.812;2023-01-05T04:53:03;9.90;99.90
52919;DHT22;38793;52.690;6.812;2023-01-05T04:55:29;9.90;99.90
52919;DHT22;38793;52.690;6.812;2023-01-05T04:57:54;9.90;99.90
52919;DHT22;38793;52.690;6.812;2023-01-05T05:00:20;9.90;99.90
52919;DHT22;38793;52.690;6.812;2023-01-05T05:02:46;9.90;99.90
52919;DHT22;38793;52.690;6.812;2023-01-05T05:05:12;9.90;99.90
52919;DHT22;38793;52.690;6.812;2023-01-05T05:07:37;9.90;99.90
52919;DHT22;38793;52.690;6.812;2023-01-05T05:10:04;10.00;99.90
52919;DHT22;38793;52.690;6.812;2023-01-05T05:12:30;10.00;99.90
52919;DHT22;38793;52.690;6.812;2023-01-05T05:14:55;9.90;99.90
52919;DHT22;38793;52.690;6.812;2023-01-05T05:17:21;10.00;99.90
52919;DHT22;38793;52.690;6.812;2023-01-05T05:19:46;10.00;99.90
52919;DHT22;38793;52.690;6.812;2023-01-05T05:22:12;9.90;99.90
52919;DHT22;38793;52.690;6.812;2023-01-05T05:24:37;9.90;99.90
52919;DHT22;38793;52.690;6.812;2023-01-05T05:27:03;9.90;99.90
52919;DHT22;38793;52.690;6.812;2023-01-05T05:29:28;9.90;99.90
52919;DHT22;38793;52.690;6.812;2023-01-05T05:31:54;9.90;99.90
52919;DHT22;38793;52.690;6.812;2023-01-05T05:34:20;9.90;99.90
52919;DHT22;38793;52.690;6.812;2023-01-05T05:36:45;9.90;99.90
52919;DHT22;38793;52.690;6.812;2023-01-05T05:39:12;9.90;99.90
52919;DHT22;38793;52.690;6.812;2023-01-05T05:41:38;9.90;99.90
52919;DHT22;38793;52.690;6.812;2023-01-05T05:44:03;9.90;99.90
52919;DHT22;38793;52.690;6.812;2023-01-05T05:46:29;10.00;99.90
52919;DHT22;38793;52.690;6.812;2023-01-05T05:48:56;9.90;99.90
52919;DHT22;38793;52.690;6.812;2023-01-05T05:51:22;9.90;99.90
52919;DHT22;38793;52.690;6.812;2023-01-05T05:53:48;9.90;99.90
52919;DHT22;38793;52.690;6.812;2023-01-05T05:56:13;9.90;99.90
52919;DHT22;38793;52.690;6.812;2023-01-05T05:58:39;9.90;99.90
52919;DHT22;38793;52.690;6.812;2023-01-05T06:01:05;10.00;99.90
52919;DHT22;38793;52.690;6.812;2023-01-05T06:03:31;9.90;99.90
52919;DHT22;38793;52.690;6.812;2023-01-05T06:05:56;9.90;99.90
52919;DHT22;38793;52.690;6.812;2023-01-05T06:08:22;9.90;99.90
52919;DHT22;38793;52.690;6.812;2023-01-05T06:10:49;9.90;99.90
52919;DHT22;38793;52.690;6.812;2023-01-05T06:13:15;9.90;99.90
52919;DHT22;38793;52.690;6.812;2023-01-05T06:15:41;9.90;99.90
52919;DHT22;38793;52.690;6.812;2023-01-05T06:18:10;9.90;99.90
52919;DHT22;38793;52.690;6.812;2023-01-05T06:20:35;9.90;99.90
52919;DHT22;38793;52.690;6.812;2023-01-05T06:23:01;10.00;99.90
52919;DHT22;38793;52.690;6.812;2023-01-05T06:25:27;10.00;99.90
52919;DHT22;38793;52.690;6.812;2023-01-05T06:27:52;10.00;99.90
52919;DHT22;38793;52.690;6.812;2023-01-05T06:30:18;10.00;99.90
52919;DHT22;38793;52.690;6.812;2023-01-05T06:32:44;10.00;99.90
52919;DHT22;38793;52.690;6.812;2023-01-05T06:35:09;10.00;99.90
52919;DHT22;38793;52.690;6.812;2023-01-05T06:37:35;10.00;99.90
52919;DHT22;38793;52.690;6.812;2023-01-05T06:40:01;10.00;99.90
52919;DHT22;38793;52.690;6.812;2023-01-05T06:42:26;10.00;99.90
52919;DHT22;38793;52.690;6.812;2023-01-05T06:44:52;10.00;99.90
52919;DHT22;38793;52.690;6.812;2023-01-05T06:47:18;10.00;99.90
52919;DHT22;38793;52.690;6.812;2023-01-05T06:49:44;10.00;99.90
52919;DHT22;38793;52.690;6.812;2023-01-05T06:52:09;10.00;99.90
52919;DHT22;38793;52.690;6.812;2023-01-05T06:54:35;9.90;99.90
52919;DHT22;38793;52.690;6.812;2023-01-05T06:57:01;9.90;99.90
52919;DHT22;38793;52.690;6.812;2023-01-05T06:59:26;10.00;99.90
52919;DHT22;38793;52.690;6.812;2023-01-05T07:01:52;10.00;99.90
52919;DHT22;38793;52.690;6.812;2023-01-05T07:04:17;10.00;99.90
52919;DHT22;38793;52.690;6.812;2023-01-05T07:06:43;10.00;99.90
52919;DHT22;38793;52.690;6.812;2023-01-05T07:09:09;10.00;99.90
52919;DHT22;38793;52.690;6.812;2023-01-05T07:11:34;10.00;99.90
52919;DHT22;38793;52.690;6.812;2023-01-05T07:14:00;9.90;99.90
52919;DHT22;38793;52.690;6.812;2023-01-05T07:16:26;9.90;99.90
52919;DHT22;38793;52.690;6.812;2023-01-05T07:18:51;9.90;99.90
52919;DHT22;38793;52.690;6.812;2023-01-05T07:21:17;9.90;99.90
52919;DHT22;38793;52.690;6.812;2023-01-05T07:23:42;9.90;99.90
52919;DHT22;38793;52.690;6.812;2023-01-05T07:26:08;10.00;99.90
52919;DHT22;38793;52.690;6.812;2023-01-05T07:28:35;10.00;99.90
52919;DHT22;38793;52.690;6.812;2023-01-05T07:31:00;10.00;99.90
52919;DHT22;38793;52.690;6.812;2023-01-05T07:33:26;9.90;99.90
52919;DHT22;38793;52.690;6.812;2023-01-05T07:35:52;9.90;99.90
52919;DHT22;38793;52.690;6.812;2023-01-05T07:38:17;9.90;99.90
52919;DHT22;38793;52.690;6.812;2023-01-05T07:40:43;9.80;99.90
52919;DHT22;38793;52.690;6.812;2023-01-05T07:43:08;9.80;99.90
52919;DHT22;38793;52.690;6.812;2023-01-05T07:45:34;9.80;99.90
52919;DHT22;38793;52.690;6.812;2023-01-05T07:48:01;9.80;99.90
52919;DHT22;38793;52.690;6.812;2023-01-05T07:50:27;9.80;99.90
52919;DHT22;38793;52.690;6.812;2023-01-05T07:52:52;9.80;99.90
52919;DHT22;38793;52.690;6.812;2023-01-05T07:55:18;9.80;99.90
52919;DHT22;38793;52.690;6.812;2023-01-05T07:57:43;9.80;99.90
52919;DHT22;38793;52.690;6.812;2023-01-05T08:00:09;9.80;99.90
52919;DHT22;38793;52.690;6.812;2023-01-05T08:02:35;9.80;99.90
52919;DHT22;38793;52.690;6.812;2023-01-05T08:05:01;9.80;99.90
52919;DHT22;38793;52.690;6.812;2023-01-05T08:07:26;9.80;99.90
52919;DHT22;38793;52.690;6.812;2023-01-05T08:09:52;9.80;99.90
52919;DHT22;38793;52.690;6.812;2023-01-05T08:12:36;9.80;99.90
52919;DHT22;38793;52.690;6.812;2023-01-05T08:15:21;9.80;99.90
52919;DHT22;38793;52.690;6.812;2023-01-05T08:17:47;9.80;99.90
52919;DHT22;38793;52.690;6.812;2023-01-05T08:20:12;9.80;99.90
52919;DHT22;38793;52.690;6.812;2023-01-05T08:22:38;9.80;99.90
52919;DHT22;38793;52.690;6.812;2023-01-05T08:25:04;9.80;99.90
52919;DHT22;38793;52.690;6.812;2023-01-05T08:27:29;9.80;99.90
52919;DHT22;38793;52.690;6.812;2023-01-05T08:29:55;9.80;99.90
52919;DHT22;38793;52.690;6.812;2023-01-05T08:32:21;9.80;99.90
52919;DHT22;38793;52.690;6.812;2023-01-05T08:34:46;9.80;99.90
52919;DHT22;38793;52.690;6.812;2023-01-05T08:37:12;9.80;99.90
52919;DHT22;38793;52.690;6.812;2023-01-05T08:39:37;9.80;99.90
52919;DHT22;38793;52.690;6.812;2023-01-05T08:42:03;9.80;99.90
52919;DHT22;38793;52.690;6.812;2023-01-05T08:44:28;9.90;99.90
52919;DHT22;38793;52.690;6.812;2023-01-05T08:46:54;9.90;99.90
52919;DHT22;38793;52.690;6.812;2023-01-05T08:49:19;9.90;99.90
52919;DHT22;38793;52.690;6.812;2023-01-05T08:51:45;9.90;99.90
52919;DHT22;38793;52.690;6.812;2023-01-05T08:54:11;9.90;99.90
52919;DHT22;38793;52.690;6.812;2023-01-05T08:56:36;9.90;99.90
52919;DHT22;38793;52.690;6.812;2023-01-05T08:59:02;9.90;99.90
52919;DHT22;38793;52.690;6.812;2023-01-05T09:01:28;9.90;99.90
52919;DHT22;38793;52.690;6.812;2023-01-05T09:03:56;10.00;99.90
52919;DHT22;38793;52.690;6.812;2023-01-05T09:06:22;9.90;99.90
52919;DHT22;38793;52.690;6.812;2023-01-05T09:08:48;10.00;99.90
52919;DHT22;38793;52.690;6.812;2023-01-05T09:11:19;10.00;99.90
52919;DHT22;38793;52.690;6.812;2023-01-05T09:13:56;10.00;99.90
52919;DHT22;38793;52.690;6.812;2023-01-05T09:16:25;10.00;99.90
52919;DHT22;38793;52.690;6.812;2023-01-05T09:18:51;10.00;99.90
52919;DHT22;38793;52.690;6.812;2023-01-05T09:21:17;9.90;99.90
52919;DHT22;38793;52.690;6.812;2023-01-05T09:23:43;10.00;99.90
52919;DHT22;38793;52.690;6.812;2023-01-05T09:26:11;10.00;99.90
52919;DHT22;38793;52.690;6.812;2023-01-05T09:28:37;10.00;99.90
52919;DHT22;38793;52.690;6.812;2023-01-05T09:31:13;10.00;99.90
52919;DHT22;38793;52.690;6.812;2023-01-05T09:33:40;10.00;99.90
52919;DHT22;38793;52.690;6.812;2023-01-05T09:36:06;10.10;99.90
52919;DHT22;38793;52.690;6.812;2023-01-05T09:38:32;10.10;99.90
52919;DHT22;38793;52.690;6.812;2023-01-05T09:41:04;10.10;99.90
52919;DHT22;38793;52.690;6.812;2023-01-05T09:43:36;10.10;99.90
52919;DHT22;38793;52.690;6.812;2023-01-05T09:46:10;10.10;99.90
52919;DHT22;38793;52.690;6.812;2023-01-05T09:48:40;10.10;99.90
52919;DHT22;38793;52.690;6.812;2023-01-05T09:51:07;10.10;99.90
52919;DHT22;38793;52.690;6.812;2023-01-05T09:53:33;10.10;99.90
52919;DHT22;38793;52.690;6.812;2023-01-05T09:55:59;10.10;99.90
52919;DHT22;38793;52.690;6.812;2023-01-05T09:58:29;10.10;99.90
52919;DHT22;38793;52.690;6.812;2023-01-05T10:01:08;10.20;99.90
52919;DHT22;38793;52.690;6.812;2023-01-05T10:03:42;10.10;99.90
52919;DHT22;38793;52.690;6.812;2023-01-05T10:06:12;10.10;99.90
52919;DHT22;38793;52.690;6.812;2023-01-05T10:08:43;10.10;99.90
52919;DHT22;38793;52.690;6.812;2023-01-05T10:11:35;10.10;99.90
52919;DHT22;38793;52.690;6.812;2023-01-05T10:14:31;10.20;99.90
52919;DHT22;38793;52.690;6.812;2023-01-05T10:16:59;10.20;99.90
52919;DHT22;38793;52.690;6.812;2023-01-05T10:19:25;10.20;99.90
52919;DHT22;38793;52.690;6.812;2023-01-05T10:22:26;10.30;99.90
52919;DHT22;38793;52.690;6.812;2023-01-05T10:27:45;10.30;99.90
52919;DHT22;38793;52.690;6.812;2023-01-05T10:30:26;10.30;99.90
52919;DHT22;38793;52.690;6.812;2023-01-05T10:33:14;10.30;99.90
52919;DHT22;38793;52.690;6.812;2023-01-05T10:36:10;10.30;99.90
52919;DHT22;38793;52.690;6.812;2023-01-05T10:39:07;10.50;99.90
52919;DHT22;38793;52.690;6.812;2023-01-05T10:44:57;10.50;99.90
52919;DHT22;38793;52.690;6.812;2023-01-05T10:47:25;10.50;99.90
52919;DHT22;38793;52.690;6.812;2023-01-05T10:49:52;10.60;99.90
52919;DHT22;38793;52.690;6.812;2023-01-05T10:52:20;10.60;99.90
52919;DHT22;38793;52.690;6.812;2023-01-05T10:54:55;11.00;99.90
52919;DHT22;38793;52.690;6.812;2023-01-05T10:59:57;11.80;99.90
52919;DHT22;38793;52.690;6.812;2023-01-05T11:02:24;12.10;99.90
52919;DHT22;38793;52.690;6.812;2023-01-05T11:04:52;12.20;99.90
52919;DHT22;38793;52.690;6.812;2023-01-05T11:07:18;12.30;99.90
52919;DHT22;38793;52.690;6.812;2023-01-05T11:09:47;12.20;99.90
52919;DHT22;38793;52.690;6.812;2023-01-05T11:12:21;12.00;99.90
52919;DHT22;38793;52.690;6.812;2023-01-05T11:14:51;11.80;99.90
52919;DHT22;38793;52.690;6.812;2023-01-05T11:17:20;11.60;99.90
52919;DHT22;38793;52.690;6.812;2023-01-05T11:19:49;11.30;99.90
52919;DHT22;38793;52.690;6.812;2023-01-05T11:22:34;11.20;99.90
52919;DHT22;38793;52.690;6.812;2023-01-05T11:25:18;11.00;99.90
52919;DHT22;38793;52.690;6.812;2023-01-05T11:27:44;10.90;99.90
52919;DHT22;38793;52.690;6.812;2023-01-05T11:30:20;10.80;99.90
52919;DHT22;38793;52.690;6.812;2023-01-05T11:32:46;10.80;99.90
52919;DHT22;38793;52.690;6.812;2023-01-05T11:35:18;10.70;99.90
52919;DHT22;38793;52.690;6.812;2023-01-05T11:37:44;10.70;99.90
52919;DHT22;38793;52.690;6.812;2023-01-05T11:40:15;10.70;99.90
52919;DHT22;38793;52.690;6.812;2023-01-05T11:42:42;10.60;99.90
52919;DHT22;38793;52.690;6.812;2023-01-05T11:45:32;10.60;99.90
52919;DHT22;38793;52.690;6.812;2023-01-05T11:48:05;10.60;99.90
52919;DHT22;38793;52.690;6.812;2023-01-05T11:50:45;10.60;99.90
52919;DHT22;38793;52.690;6.812;2023-01-05T11:56:20;10.60;99.90
52919;DHT22;38793;52.690;6.812;2023-01-05T11:58:48;10.60;99.90
52919;DHT22;38793;52.690;6.812;2023-01-05T12:01:36;10.60;99.90
52919;DHT22;38793;52.690;6.812;2023-01-05T12:04:46;10.50;99.90
52919;DHT22;38793;52.690;6.812;2023-01-05T12:07:29;10.50;99.90
52919;DHT22;38793;52.690;6.812;2023-01-05T12:10:02;10.50;99.90
52919;DHT22;38793;52.690;6.812;2023-01-05T12:21:37;10.50;99.90
52919;DHT22;38793;52.690;6.812;2023-01-05T12:24:28;10.50;99.90
52919;DHT22;38793;52.690;6.812;2023-01-05T12:27:03;10.50;99.90
52919;DHT22;38793;52.690;6.812;2023-01-05T12:32:39;10.40;99.90
52919;DHT22;38793;52.690;6.812;2023-01-05T12:38:36;10.30;99.90
52919;DHT22;38793;52.690;6.812;2023-01-05T12:47:25;10.20;99.90
52919;DHT22;38793;52.690;6.812;2023-01-05T12:49:59;10.10;99.90
52919;DHT22;38793;52.690;6.812;2023-01-05T12:52:42;10.00;99.90
52919;DHT22;38793;52.690;6.812;2023-01-05T12:55:22;10.10;99.90
52919;DHT22;38793;52.690;6.812;2023-01-05T12:57:51;10.00;99.90
52919;DHT22;38793;52.690;6.812;2023-01-05T13:00:22;10.00;99.90
52919;DHT22;38793;52.690;6.812;2023-01-05T13:03:04;10.00;99.90
52919;DHT22;38793;52.690;6.812;2023-01-05T13:06:04;10.00;99.90
52919;DHT22;38793;52.690;6.812;2023-01-05T13:08:52;10.00;99.90
52919;DHT22;38793;52.690;6.812;2023-01-05T13:11:28;10.00;99.90
52919;DHT22;38793;52.690;6.812;2023-01-05T13:14:32;10.10;99.90
52919;DHT22;38793;52.690;6.812;2023-01-05T13:16:58;10.00;99.90
52919;DHT22;38793;52.690;6.812;2023-01-05T13:19:27;10.10;99.90
52919;DHT22;38793;52.690;6.812;2023-01-05T13:21:56;10.00;99.90
52919;DHT22;38793;52.690;6.812;2023-01-05T13:24:27;10.10;99.90
52919;DHT22;38793;52.690;6.812;2023-01-05T13:26:54;10.00;99.90
52919;DHT22;38793;52.690;6.812;2023-01-05T13:29:25;10.10;99.90
52919;DHT22;38793;52.690;6.812;2023-01-05T13:34:45;10.10;99.90
52919;DHT22;38793;52.690;6.812;2023-01-05T13:37:22;10.10;99.90
52919;DHT22;38793;52.690;6.812;2023-01-05T13:42:39;10.20;99.90
52919;DHT22;38793;52.690;6.812;2023-01-05T13:45:33;10.20;99.90
52919;DHT22;38793;52.690;6.812;2023-01-05T13:48:34;10.20;99.90
52919;DHT22;38793;52.690;6.812;2023-01-05T13:51:50;10.10;99.90
52919;DHT22;38793;52.690;6.812;2023-01-05T13:56:46;10.20;99.90
52919;DHT22;38793;52.690;6.812;2023-01-05T13:59:26;10.20;99.90
52919;DHT22;38793;52.690;6.812;2023-01-05T14:01:53;10.20;99.90
52919;DHT22;38793;52.690;6.812;2023-01-05T14:04:28;10.10;99.90
52919;DHT22;38793;52.690;6.812;2023-01-05T14:07:01;10.10;99.90
52919;DHT22;38793;52.690;6.812;2023-01-05T14:09:52;10.10;99.90
52919;DHT22;38793;52.690;6.812;2023-01-05T14:17:52;10.10;99.90
52919;DHT22;38793;52.690;6.812;2023-01-05T14:20:43;10.10;99.90
52919;DHT22;38793;52.690;6.812;2023-01-05T14:25:59;10.10;99.90
52919;DHT22;38793;52.690;6.812;2023-01-05T14:33:34;10.10;99.90
52919;DHT22;38793;52.690;6.812;2023-01-05T14:38:54;10.10;99.90
52919;DHT22;38793;52.690;6.812;2023-01-05T14:41:24;10.10;99.90
52919;DHT22;38793;52.690;6.812;2023-01-05T14:44:22;10.10;99.90
52919;DHT22;38793;52.690;6.812;2023-01-05T14:46:54;10.10;99.90
52919;DHT22;38793;52.690;6.812;2023-01-05T14:49:37;10.20;99.90
52919;DHT22;38793;52.690;6.812;2023-01-05T14:52:05;10.20;99.90
52919;DHT22;38793;52.690;6.812;2023-01-05T14:57:35;10.20;99.90
52919;DHT22;38793;52.690;6.812;2023-01-05T15:00:06;10.20;99.90
52919;DHT22;38793;52.690;6.812;2023-01-05T15:05:46;10.20;99.90
52919;DHT22;38793;52.690;6.812;2023-01-05T15:08:21;10.10;99.90
52919;DHT22;38793;52.690;6.812;2023-01-05T15:11:05;10.10;99.90
52919;DHT22;38793;52.690;6.812;2023-01-05T15:16:44;10.10;99.90
52919;DHT22;38793;52.690;6.812;2023-01-05T15:28:01;10.10;99.90
52919;DHT22;38793;52.690;6.812;2023-01-05T15:33:31;10.10;99.90
52919;DHT22;38793;52.690;6.812;2023-01-05T15:36:02;10.10;99.90
52919;DHT22;38793;52.690;6.812;2023-01-05T15:38:30;10.00;99.90
52919;DHT22;38793;52.690;6.812;2023-01-05T15:41:03;10.00;99.90
52919;DHT22;38793;52.690;6.812;2023-01-05T15:43:31;9.90;99.90
52919;DHT22;38793;52.690;6.812;2023-01-05T15:45:58;9.90;99.90
52919;DHT22;38793;52.690;6.812;2023-01-05T15:48:36;9.90;99.90
52919;DHT22;38793;52.690;6.812;2023-01-05T15:51:04;9.80;99.90
52919;DHT22;38793;52.690;6.812;2023-01-05T15:53:38;9.80;99.90
52919;DHT22;38793;52.690;6.812;2023-01-05T15:58:49;9.70;99.90
52919;DHT22;38793;52.690;6.812;2023-01-05T16:01:15;9.70;99.90
52919;DHT22;38793;52.690;6.812;2023-01-05T16:03:43;9.70;99.90
52919;DHT22;38793;52.690;6.812;2023-01-05T16:06:18;9.60;99.90
52919;DHT22;38793;52.690;6.812;2023-01-05T16:08:49;9.60;99.90
52919;DHT22;38793;52.690;6.812;2023-01-05T16:11:25;9.50;99.90
52919;DHT22;38793;52.690;6.812;2023-01-05T16:13:59;9.50;99.90
52919;DHT22;38793;52.690;6.812;2023-01-05T16:16:45;9.30;99.90
52919;DHT22;38793;52.690;6.812;2023-01-05T16:21:53;9.20;99.90
52919;DHT22;38793;52.690;6.812;2023-01-05T16:24:36;9.10;99.90
52919;DHT22;38793;52.690;6.812;2023-01-05T16:27:04;9.00;99.90
52919;DHT22;38793;52.690;6.812;2023-01-05T16:29:40;9.10;99.90
52919;DHT22;38793;52.690;6.812;2023-01-05T16:32:33;9.00;99.90
52919;DHT22;38793;52.690;6.812;2023-01-05T16:37:44;9.00;99.90
52919;DHT22;38793;52.690;6.812;2023-01-05T16:40:19;9.00;99.90
52919;DHT22;38793;52.690;6.812;2023-01-05T16:42:47;9.00;99.90
52919;DHT22;38793;52.690;6.812;2023-01-05T16:45:21;9.00;99.90
52919;DHT22;38793;52.690;6.812;2023-01-05T16:47:47;9.00;99.90
52919;DHT22;38793;52.690;6.812;2023-01-05T16:52:53;9.10;99.90
52919;DHT22;38793;52.690;6.812;2023-01-05T16:55:28;9.10;99.90
52919;DHT22;38793;52.690;6.812;2023-01-05T16:57:55;9.10;99.90
52919;DHT22;38793;52.690;6.812;2023-01-05T17:00:41;9.10;99.90
52919;DHT22;38793;52.690;6.812;2023-01-05T17:03:28;9.10;99.90
52919;DHT22;38793;52.690;6.812;2023-01-05T17:05:54;9.20;99.90
52919;DHT22;38793;52.690;6.812;2023-01-05T17:08:23;9.20;99.90
52919;DHT22;38793;52.690;6.812;2023-01-05T17:10:51;9.20;99.90
52919;DHT22;38793;52.690;6.812;2023-01-05T17:13:22;9.30;99.90
52919;DHT22;38793;52.690;6.812;2023-01-05T17:15:50;9.30;99.90
52919;DHT22;38793;52.690;6.812;2023-01-05T17:18:27;9.30;99.90
52919;DHT22;38793;52.690;6.812;2023-01-05T17:20:55;9.40;99.90
52919;DHT22;38793;52.690;6.812;2023-01-05T17:23:22;9.40;99.90
52919;DHT22;38793;52.690;6.812;2023-01-05T17:25:50;9.40;99.90
52919;DHT22;38793;52.690;6.812;2023-01-05T17:28:16;9.40;99.90
52919;DHT22;38793;52.690;6.812;2023-01-05T17:30:42;9.40;99.90
52919;DHT22;38793;52.690;6.812;2023-01-05T17:33:08;9.50;99.90
52919;DHT22;38793;52.690;6.812;2023-01-05T17:35:34;9.50;99.90
52919;DHT22;38793;52.690;6.812;2023-01-05T17:38:00;9.50;99.90
52919;DHT22;38793;52.690;6.812;2023-01-05T17:40:25;9.50;99.90
52919;DHT22;38793;52.690;6.812;2023-01-05T17:42:53;9.60;99.90
52919;DHT22;38793;52.690;6.812;2023-01-05T17:45:21;9.60;99.90
52919;DHT22;38793;52.690;6.812;2023-01-05T17:47:48;9.60;99.90